首页
METAR-TAF:

METAR-TAF

机场 :

沃特福德, 爱尔兰

纬度: 52-11-14N, 经度: 7-05-13W, 海拔: 36米

当前天气观测

该预报发布于36分钟前的16:00 UTC
风速3节,风向多变
温度 12°C
湿度 82%
气压 1001 hPa
能见度10公里或以上
少量云层高于2500英尺, 积雨云.
散云层高于4000英尺
附近有阵雨

METAR: EIWF 231600Z VRB03KT 9999 VCSH FEW025CB SCT040 12/09 Q1001 R21/1/////

时间: 17:36 (16:36 UTC)

预报

该预报发布于2小时和36分钟前的14:00 UTC
预报有效从23日的 15点(UTC)到 23日的 24点(UTC)
风速3节,风向多变
能见度10公里或以上
少量云层高于2000英尺
短暂存在
从 23日的 15点(UTC)到 23日的 18点(UTC)
散云层高于2000英尺, 积雨云.
小阵雨
几率 30% :
短暂存在
从 23日的 15点(UTC)到 23日的 18点(UTC)
能見度: 4000
阵雨
成为
从 23日的 20点(UTC)到 23日的 22点(UTC)
风速12节,风向
短暂存在
从 23日的 20点(UTC)到 23日的 24点(UTC)
风速20节,风向南转西南,有时为30节阵风
能見度: 4000
多云层高于1000英尺
散云层高于1800英尺, 积雨云.
阵雨

TAF: EIWF 231400Z 2315/2324 VRB03KT 9999 FEW020 TEMPO 2315/2318 -SHRA SCT020CB PROB30 TEMPO 2315/2318 4000 SHRA BECMG 2320/2322 19012KT TEMPO 2320/2324 20020G30KT 4000 SHRA BKN010 SCT018CB

超过4000个机场的气象观测和天气预报(METAR&TAF报告)。

可查询的气象台以黄色和红色小点在地图上表示。

将鼠标移到小点上方,可查看气象台名称。

然后点击查看天气观测和预报。

如需切换地图:点击带黑十字的绿色按钮放大地图;点击带横线的绿色按钮缩小地图;或者点击绿色箭头查看邻近地区的地图。


METAR-TAF: